Vitoria-Gasteiz, Spain
Current Conditions -  °F | °C
As of 10:00 PM on Sunday 23 Nov 2014 (Local Time) from LEVT Reporting Station
Scattered Clouds Scattered Clouds  
Wind Chill: 55°   Ceiling: Unl
Heat Index: 55°   Visibility: 6mi
Dew Point: 52°   Wind: 9mph
Humidity: 88%   Direction: 60°ENE
Pressure: 30"   Gusts: NA
Location:  42.85°N, 2.67°W
Report Text: LEVT 232100Z 06008KT 9999 FEW030 SCT070 13/11 Q1016
Loading
Personal Weather Stations






























Interactive Weather Map New forecast layout! Learn more

10-Day Weather Forecast

Advertisements
Track Severe Weather on mobile